Terminal Aerodrome Forecast
Issued by NWS St Louis, MO

Home | Current Version | Previous Version | Text Only | Print | Product List | Glossary On
Versions: 1 2 3 4 5 6 7 8 9 10 11 12 13 14 15 16
185
FTUS43 KLSX 071132
TAFCOU
TAF
KCOU 071132Z 0712/0812 22010KT P6SM BKN200
     FM071600 27012KT P6SM BKN120
     FM071900 29017G27KT P6SM SCT050 BKN120
     FM080300 29013KT P6SM BKN040=

USA.gov is the U.S. government's official web portal to all federal, state and local government web resources and services.